createdAt,value
2022-11-19T00:08:11.261Z,10.38
2022-11-19T00:13:05.109Z,13.40
2022-11-19T00:17:59.252Z,13.35
2022-11-19T00:22:59.935Z,13.43
2022-11-19T00:27:51.043Z,13.98
2022-11-19T00:32:43.983Z,14.57
2022-11-19T00:37:38.958Z,14.00
2022-11-19T00:42:36.917Z,13.32
2022-11-19T00:47:28.319Z,15.15
2022-11-19T00:52:20.112Z,13.85
2022-11-19T00:57:11.013Z,18.83
2022-11-19T01:02:05.723Z,18.77
2022-11-19T01:06:57.050Z,17.63
2022-11-19T01:11:49.174Z,19.23
2022-11-19T01:16:46.737Z,18.13
2022-11-19T01:21:43.445Z,18.95
2022-11-19T01:26:40.565Z,19.30
2022-11-19T01:31:39.150Z,18.85
2022-11-19T01:36:39.120Z,19.20
2022-11-19T01:41:35.146Z,19.80
2022-11-19T01:46:32.720Z,19.38
2022-11-19T01:51:32.079Z,18.10
2022-11-19T01:56:29.704Z,18.80
2022-11-19T02:01:29.277Z,18.25
2022-11-19T02:06:22.132Z,20.20
2022-11-19T02:11:34.541Z,20.15
2022-11-19T02:16:36.462Z,20.10
2022-11-19T02:21:44.734Z,19.75
2022-11-19T02:27:04.876Z,18.23
2022-11-19T02:32:19.335Z,17.40
2022-11-19T02:37:17.017Z,20.00
2022-11-19T02:42:21.153Z,18.17
2022-11-19T02:47:23.688Z,17.65
2022-11-19T02:52:16.213Z,17.80
2022-11-19T02:57:08.351Z,12.98
2022-11-19T03:02:11.762Z,13.15
2022-11-19T03:07:10.803Z,13.40
2022-11-19T03:12:15.925Z,14.27
2022-11-19T03:17:15.276Z,22.08
2022-11-19T03:22:17.428Z,21.08
2022-11-19T03:27:20.733Z,12.65
2022-11-19T03:32:19.717Z,22.35
2022-11-19T03:37:38.535Z,22.50
2022-11-19T03:42:42.617Z,22.15
2022-11-19T03:47:41.127Z,21.43
2022-11-19T03:52:42.545Z,22.08
2022-11-19T03:57:45.315Z,22.35
2022-11-19T04:02:38.772Z,21.67
2022-11-19T04:07:31.314Z,21.75
2022-11-19T04:12:34.980Z,21.42
2022-11-19T04:17:25.786Z,20.92
2022-11-19T04:22:21.430Z,20.08
2022-11-19T04:27:21.680Z,19.15
2022-11-19T04:32:17.053Z,20.42
2022-11-19T04:37:08.616Z,20.50
2022-11-19T04:41:59.820Z,21.73
2022-11-19T04:46:50.631Z,21.52
2022-11-19T04:51:44.187Z,22.95
2022-11-19T04:56:42.145Z,21.77
2022-11-19T05:01:34.673Z,23.00
2022-11-19T05:06:27.567Z,24.05
2022-11-19T05:11:24.951Z,24.50
2022-11-19T05:16:19.233Z,23.55
2022-11-19T05:21:10.977Z,25.25
2022-11-19T05:26:05.198Z,24.52
2022-11-19T05:31:04.700Z,24.00
2022-11-19T05:36:00.531Z,26.50
2022-11-19T05:40:51.443Z,26.10
2022-11-19T05:45:42.670Z,26.30
2022-11-19T05:50:36.715Z,28.23
2022-11-19T05:55:31.065Z,26.83
2022-11-19T06:00:22.877Z,29.17
2022-11-19T06:05:17.931Z,27.65
2022-11-19T06:10:17.958Z,27.85
2022-11-19T06:15:10.104Z,29.15
2022-11-19T06:20:05.004Z,28.27
2022-11-19T06:25:00.377Z,28.73
2022-11-19T06:29:56.987Z,30.05
2022-11-19T06:34:49.527Z,27.88
2022-11-19T06:39:43.839Z,28.20
2022-11-19T06:44:36.365Z,29.85
2022-11-19T06:49:38.533Z,29.13
2022-11-19T06:54:29.657Z,28.15
2022-11-19T06:59:23.160Z,28.10
2022-11-19T07:04:14.724Z,28.50
2022-11-19T07:09:11.540Z,28.33
2022-11-19T07:14:06.242Z,29.08
2022-11-19T07:19:02.356Z,26.77
2022-11-19T07:23:53.161Z,26.80
2022-11-19T07:28:48.817Z,27.90
2022-11-19T07:33:41.521Z,29.35
2022-11-19T07:38:37.168Z,28.42
2022-11-19T07:43:30.150Z,28.93
2022-11-19T07:48:30.795Z,29.07
2022-11-19T07:53:24.290Z,28.77
2022-11-19T07:58:22.489Z,28.10
2022-11-19T08:03:15.779Z,30.30
2022-11-19T08:08:13.529Z,28.25
2022-11-19T08:13:12.282Z,29.80
2022-11-19T08:18:17.431Z,30.08
2022-11-19T08:23:29.301Z,28.73
2022-11-19T08:28:21.049Z,27.50
2022-11-19T08:33:27.217Z,27.87
2022-11-19T08:38:27.981Z,28.23
2022-11-19T08:43:23.548Z,26.00
2022-11-19T08:48:17.633Z,23.67
2022-11-19T08:53:10.354Z,25.13
2022-11-19T08:58:12.766Z,26.47
2022-11-19T09:03:04.657Z,25.88
2022-11-19T09:08:01.692Z,24.80
2022-11-19T09:12:55.794Z,23.67
2022-11-19T09:17:56.634Z,23.67
2022-11-19T09:22:51.087Z,24.08
2022-11-19T09:27:43.384Z,24.75
2022-11-19T09:32:43.266Z,24.67
2022-11-19T09:37:46.167Z,22.60
2022-11-19T09:42:54.360Z,25.42
2022-11-19T09:48:02.254Z,25.90
2022-11-19T09:53:07.026Z,25.35
2022-11-19T09:58:05.218Z,24.20
2022-11-19T10:03:07.267Z,25.50
2022-11-19T10:08:23.339Z,25.95
2022-11-19T10:13:32.596Z,25.60
2022-11-19T10:18:37.276Z,23.02
2022-11-19T10:23:45.914Z,24.07
2022-11-19T10:28:43.375Z,23.75
2022-11-19T10:33:45.591Z,22.90
2022-11-19T10:38:55.125Z,17.63
2022-11-19T10:43:56.337Z,18.98
2022-11-19T10:48:54.241Z,18.48
